sensor_id;sensor_type;location;lat;lon;timestamp;P1;durP1;ratioP1;P2;durP2;ratioP2
3307;SDS011;1666;48.898;9.182;2023-05-10T00:00:22;2.88;;;1.00;;
3307;SDS011;1666;48.898;9.182;2023-05-10T00:02:52;1.35;;;0.80;;
3307;SDS011;1666;48.898;9.182;2023-05-10T00:05:22;1.67;;;0.80;;
3307;SDS011;1666;48.898;9.182;2023-05-10T00:07:51;1.77;;;0.93;;
3307;SDS011;1666;48.898;9.182;2023-05-10T00:10:22;1.23;;;0.70;;
3307;SDS011;1666;48.898;9.182;2023-05-10T00:12:54;2.20;;;0.60;;
3307;SDS011;1666;48.898;9.182;2023-05-10T00:15:24;1.67;;;0.57;;
3307;SDS011;1666;48.898;9.182;2023-05-10T00:17:54;0.43;;;0.32;;
3307;SDS011;1666;48.898;9.182;2023-05-10T00:20:24;0.50;;;0.35;;
3307;SDS011;1666;48.898;9.182;2023-05-10T00:22:54;1.10;;;0.50;;
3307;SDS011;1666;48.898;9.182;2023-05-10T00:25:24;0.40;;;0.30;;
3307;SDS011;1666;48.898;9.182;2023-05-10T00:27:56;0.85;;;0.30;;
3307;SDS011;1666;48.898;9.182;2023-05-10T00:30:27;1.52;;;0.47;;
3307;SDS011;1666;48.898;9.182;2023-05-10T00:32:57;5.70;;;0.50;;
3307;SDS011;1666;48.898;9.182;2023-05-10T00:35:27;2.78;;;0.50;;
3307;SDS011;1666;48.898;9.182;2023-05-10T00:37:57;2.38;;;0.52;;
3307;SDS011;1666;48.898;9.182;2023-05-10T00:40:27;0.57;;;0.45;;
3307;SDS011;1666;48.898;9.182;2023-05-10T00:43:00;0.80;;;0.43;;
3307;SDS011;1666;48.898;9.182;2023-05-10T00:45:30;1.10;;;0.60;;
3307;SDS011;1666;48.898;9.182;2023-05-10T00:48:01;2.83;;;0.60;;
3307;SDS011;1666;48.898;9.182;2023-05-10T00:50:32;0.63;;;0.50;;
3307;SDS011;1666;48.898;9.182;2023-05-10T00:53:02;1.52;;;0.60;;
3307;SDS011;1666;48.898;9.182;2023-05-10T00:55:32;0.90;;;0.73;;
3307;SDS011;1666;48.898;9.182;2023-05-10T00:58:05;1.55;;;0.55;;
3307;SDS011;1666;48.898;9.182;2023-05-10T01:00:35;0.95;;;0.70;;
3307;SDS011;1666;48.898;9.182;2023-05-10T01:03:07;0.77;;;0.60;;
3307;SDS011;1666;48.898;9.182;2023-05-10T01:05:37;1.27;;;0.70;;
3307;SDS011;1666;48.898;9.182;2023-05-10T01:08:07;1.85;;;0.60;;
3307;SDS011;1666;48.898;9.182;2023-05-10T01:10:37;0.55;;;0.50;;
3307;SDS011;1666;48.898;9.182;2023-05-10T01:13:10;0.80;;;0.60;;
3307;SDS011;1666;48.898;9.182;2023-05-10T01:15:41;0.70;;;0.70;;
3307;SDS011;1666;48.898;9.182;2023-05-10T01:18:11;0.57;;;0.55;;
3307;SDS011;1666;48.898;9.182;2023-05-10T01:20:43;0.80;;;0.77;;
3307;SDS011;1666;48.898;9.182;2023-05-10T01:26:18;1.30;;;1.17;;
3307;SDS011;1666;48.898;9.182;2023-05-10T01:29:17;2.13;;;1.20;;
3307;SDS011;1666;48.898;9.182;2023-05-10T01:35:00;1.70;;;1.48;;
3307;SDS011;1666;48.898;9.182;2023-05-10T01:37:36;3.80;;;1.52;;
3307;SDS011;1666;48.898;9.182;2023-05-10T01:40:13;3.28;;;1.50;;
3307;SDS011;1666;48.898;9.182;2023-05-10T01:42:50;2.92;;;1.63;;
3307;SDS011;1666;48.898;9.182;2023-05-10T01:45:24;1.50;;;1.40;;
3307;SDS011;1666;48.898;9.182;2023-05-10T01:48:05;2.63;;;1.40;;
3307;SDS011;1666;48.898;9.182;2023-05-10T01:50:38;1.50;;;1.33;;
3307;SDS011;1666;48.898;9.182;2023-05-10T01:53:11;2.35;;;1.98;;
3307;SDS011;1666;48.898;9.182;2023-05-10T01:55:47;1.60;;;1.40;;
3307;SDS011;1666;48.898;9.182;2023-05-10T01:58:21;2.30;;;1.50;;
3307;SDS011;1666;48.898;9.182;2023-05-10T02:00:54;2.50;;;1.67;;
3307;SDS011;1666;48.898;9.182;2023-05-10T02:03:28;2.67;;;1.40;;
3307;SDS011;1666;48.898;9.182;2023-05-10T02:06:00;1.75;;;1.50;;
3307;SDS011;1666;48.898;9.182;2023-05-10T02:08:31;5.05;;;1.42;;
3307;SDS011;1666;48.898;9.182;2023-05-10T02:11:03;1.42;;;1.33;;
3307;SDS011;1666;48.898;9.182;2023-05-10T02:13:34;1.30;;;1.00;;
3307;SDS011;1666;48.898;9.182;2023-05-10T02:16:06;1.73;;;1.27;;
3307;SDS011;1666;48.898;9.182;2023-05-10T02:18:40;2.28;;;1.20;;
3307;SDS011;1666;48.898;9.182;2023-05-10T02:21:10;2.38;;;1.30;;
3307;SDS011;1666;48.898;9.182;2023-05-10T02:23:42;2.13;;;1.30;;
3307;SDS011;1666;48.898;9.182;2023-05-10T02:26:12;1.38;;;1.27;;
3307;SDS011;1666;48.898;9.182;2023-05-10T02:28:44;1.73;;;1.30;;
3307;SDS011;1666;48.898;9.182;2023-05-10T02:31:14;1.50;;;1.25;;
3307;SDS011;1666;48.898;9.182;2023-05-10T02:33:47;3.25;;;1.50;;
3307;SDS011;1666;48.898;9.182;2023-05-10T02:36:18;3.45;;;1.60;;
3307;SDS011;1666;48.898;9.182;2023-05-10T02:38:49;1.92;;;1.60;;
3307;SDS011;1666;48.898;9.182;2023-05-10T02:41:20;3.05;;;1.42;;
3307;SDS011;1666;48.898;9.182;2023-05-10T02:43:53;1.58;;;1.48;;
3307;SDS011;1666;48.898;9.182;2023-05-10T02:46:26;2.77;;;1.57;;
3307;SDS011;1666;48.898;9.182;2023-05-10T02:48:59;1.90;;;1.70;;
3307;SDS011;1666;48.898;9.182;2023-05-10T02:51:30;5.05;;;1.77;;
3307;SDS011;1666;48.898;9.182;2023-05-10T02:54:03;4.75;;;1.90;;
3307;SDS011;1666;48.898;9.182;2023-05-10T02:56:36;2.75;;;1.80;;
3307;SDS011;1666;48.898;9.182;2023-05-10T02:59:11;3.83;;;2.20;;
3307;SDS011;1666;48.898;9.182;2023-05-10T03:01:41;2.65;;;2.00;;
3307;SDS011;1666;48.898;9.182;2023-05-10T03:04:14;2.50;;;2.30;;
3307;SDS011;1666;48.898;9.182;2023-05-10T03:06:44;3.33;;;2.50;;
3307;SDS011;1666;48.898;9.182;2023-05-10T03:09:14;4.03;;;2.50;;
3307;SDS011;1666;48.898;9.182;2023-05-10T03:11:47;3.80;;;2.50;;
3307;SDS011;1666;48.898;9.182;2023-05-10T03:14:33;2.30;;;2.10;;
3307;SDS011;1666;48.898;9.182;2023-05-10T03:17:14;3.85;;;2.20;;
3307;SDS011;1666;48.898;9.182;2023-05-10T03:19:53;2.30;;;2.10;;
3307;SDS011;1666;48.898;9.182;2023-05-10T03:22:24;2.55;;;2.35;;
3307;SDS011;1666;48.898;9.182;2023-05-10T03:24:59;3.55;;;2.38;;
3307;SDS011;1666;48.898;9.182;2023-05-10T03:30:05;3.47;;;2.50;;
3307;SDS011;1666;48.898;9.182;2023-05-10T03:32:39;2.92;;;2.65;;
3307;SDS011;1666;48.898;9.182;2023-05-10T03:35:12;3.33;;;2.90;;
3307;SDS011;1666;48.898;9.182;2023-05-10T03:37:42;3.88;;;2.92;;
3307;SDS011;1666;48.898;9.182;2023-05-10T03:40:12;3.58;;;2.90;;
3307;SDS011;1666;48.898;9.182;2023-05-10T03:42:43;3.20;;;2.72;;
3307;SDS011;1666;48.898;9.182;2023-05-10T03:45:13;4.35;;;2.63;;
3307;SDS011;1666;48.898;9.182;2023-05-10T03:47:43;4.78;;;3.20;;
3307;SDS011;1666;48.898;9.182;2023-05-10T03:50:16;3.92;;;2.90;;
3307;SDS011;1666;48.898;9.182;2023-05-10T03:52:46;4.38;;;3.17;;
3307;SDS011;1666;48.898;9.182;2023-05-10T03:55:17;3.88;;;3.22;;
3307;SDS011;1666;48.898;9.182;2023-05-10T03:57:48;7.03;;;3.25;;
3307;SDS011;1666;48.898;9.182;2023-05-10T04:00:20;4.18;;;3.28;;
3307;SDS011;1666;48.898;9.182;2023-05-10T04:02:50;5.35;;;3.40;;
3307;SDS011;1666;48.898;9.182;2023-05-10T04:05:22;4.00;;;3.10;;
3307;SDS011;1666;48.898;9.182;2023-05-10T04:07:52;4.18;;;3.22;;
3307;SDS011;1666;48.898;9.182;2023-05-10T04:10:22;4.97;;;3.30;;
3307;SDS011;1666;48.898;9.182;2023-05-10T04:12:52;3.55;;;3.13;;
3307;SDS011;1666;48.898;9.182;2023-05-10T04:15:22;4.60;;;3.75;;
3307;SDS011;1666;48.898;9.182;2023-05-10T04:17:52;4.80;;;3.28;;
3307;SDS011;1666;48.898;9.182;2023-05-10T04:20:24;4.28;;;3.47;;
3307;SDS011;1666;48.898;9.182;2023-05-10T04:22:54;4.55;;;3.13;;
3307;SDS011;1666;48.898;9.182;2023-05-10T04:25:24;3.95;;;2.90;;
3307;SDS011;1666;48.898;9.182;2023-05-10T04:27:54;8.45;;;2.90;;
3307;SDS011;1666;48.898;9.182;2023-05-10T04:30:24;2.90;;;2.60;;
3307;SDS011;1666;48.898;9.182;2023-05-10T04:32:55;2.90;;;2.60;;
3307;SDS011;1666;48.898;9.182;2023-05-10T04:35:28;4.22;;;3.30;;
3307;SDS011;1666;48.898;9.182;2023-05-10T04:37:58;3.97;;;2.80;;
3307;SDS011;1666;48.898;9.182;2023-05-10T04:40:28;4.38;;;2.67;;
3307;SDS011;1666;48.898;9.182;2023-05-10T04:42:58;3.55;;;2.47;;
3307;SDS011;1666;48.898;9.182;2023-05-10T04:45:28;2.88;;;2.25;;
3307;SDS011;1666;48.898;9.182;2023-05-10T04:47:57;4.75;;;2.92;;
3307;SDS011;1666;48.898;9.182;2023-05-10T04:50:30;3.92;;;2.70;;
3307;SDS011;1666;48.898;9.182;2023-05-10T04:53:00;2.97;;;2.60;;
3307;SDS011;1666;48.898;9.182;2023-05-10T04:55:30;5.32;;;2.30;;
3307;SDS011;1666;48.898;9.182;2023-05-10T04:58:00;2.50;;;2.30;;
3307;SDS011;1666;48.898;9.182;2023-05-10T05:00:29;2.95;;;2.30;;
3307;SDS011;1666;48.898;9.182;2023-05-10T05:02:59;2.75;;;2.45;;
3307;SDS011;1666;48.898;9.182;2023-05-10T05:05:32;5.00;;;2.70;;
3307;SDS011;1666;48.898;9.182;2023-05-10T05:08:02;3.30;;;2.47;;
3307;SDS011;1666;48.898;9.182;2023-05-10T05:10:32;4.22;;;2.58;;
3307;SDS011;1666;48.898;9.182;2023-05-10T05:13:02;3.10;;;2.70;;
3307;SDS011;1666;48.898;9.182;2023-05-10T05:15:32;4.75;;;2.72;;
3307;SDS011;1666;48.898;9.182;2023-05-10T05:18:02;2.97;;;2.53;;
3307;SDS011;1666;48.898;9.182;2023-05-10T05:20:35;2.90;;;2.60;;
3307;SDS011;1666;48.898;9.182;2023-05-10T05:23:05;4.03;;;2.80;;
3307;SDS011;1666;48.898;9.182;2023-05-10T05:25:35;5.32;;;2.30;;
3307;SDS011;1666;48.898;9.182;2023-05-10T05:28:05;3.05;;;2.45;;
3307;SDS011;1666;48.898;9.182;2023-05-10T05:30:35;5.47;;;2.40;;
3307;SDS011;1666;48.898;9.182;2023-05-10T05:33:04;2.92;;;2.20;;
3307;SDS011;1666;48.898;9.182;2023-05-10T05:35:37;4.15;;;2.42;;
3307;SDS011;1666;48.898;9.182;2023-05-10T05:38:07;5.00;;;2.80;;
3307;SDS011;1666;48.898;9.182;2023-05-10T05:40:37;3.75;;;2.75;;
3307;SDS011;1666;48.898;9.182;2023-05-10T05:43:07;4.40;;;2.50;;
3307;SDS011;1666;48.898;9.182;2023-05-10T05:45:36;6.82;;;4.32;;
3307;SDS011;1666;48.898;9.182;2023-05-10T05:48:07;4.13;;;2.83;;
3307;SDS011;1666;48.898;9.182;2023-05-10T05:50:40;3.85;;;3.50;;
3307;SDS011;1666;48.898;9.182;2023-05-10T05:53:10;3.75;;;3.17;;
3307;SDS011;1666;48.898;9.182;2023-05-10T05:55:40;8.93;;;3.05;;
3307;SDS011;1666;48.898;9.182;2023-05-10T05:58:09;3.75;;;3.08;;
3307;SDS011;1666;48.898;9.182;2023-05-10T06:00:39;6.63;;;3.83;;
3307;SDS011;1666;48.898;9.182;2023-05-10T06:03:09;4.22;;;3.20;;
3307;SDS011;1666;48.898;9.182;2023-05-10T06:05:42;5.25;;;3.13;;
3307;SDS011;1666;48.898;9.182;2023-05-10T06:08:12;3.38;;;2.72;;
3307;SDS011;1666;48.898;9.182;2023-05-10T06:10:42;3.65;;;2.95;;
3307;SDS011;1666;48.898;9.182;2023-05-10T06:13:12;6.40;;;3.53;;
3307;SDS011;1666;48.898;9.182;2023-05-10T06:15:42;7.80;;;3.35;;
3307;SDS011;1666;48.898;9.182;2023-05-10T06:18:12;3.30;;;2.63;;
3307;SDS011;1666;48.898;9.182;2023-05-10T06:20:44;4.10;;;3.30;;
3307;SDS011;1666;48.898;9.182;2023-05-10T06:23:14;3.50;;;2.83;;
3307;SDS011;1666;48.898;9.182;2023-05-10T06:25:44;3.47;;;2.58;;
3307;SDS011;1666;48.898;9.182;2023-05-10T06:28:14;2.88;;;2.47;;
3307;SDS011;1666;48.898;9.182;2023-05-10T06:30:43;4.00;;;2.83;;
3307;SDS011;1666;48.898;9.182;2023-05-10T06:33:14;3.03;;;2.38;;
3307;SDS011;1666;48.898;9.182;2023-05-10T06:35:47;5.03;;;2.58;;
3307;SDS011;1666;48.898;9.182;2023-05-10T06:38:17;4.20;;;2.22;;
3307;SDS011;1666;48.898;9.182;2023-05-10T06:40:47;3.55;;;2.70;;
3307;SDS011;1666;48.898;9.182;2023-05-10T06:43:17;3.35;;;2.30;;
3307;SDS011;1666;48.898;9.182;2023-05-10T06:45:47;3.53;;;2.35;;
3307;SDS011;1666;48.898;9.182;2023-05-10T06:48:17;3.28;;;2.83;;
3307;SDS011;1666;48.898;9.182;2023-05-10T06:50:50;2.53;;;2.00;;
3307;SDS011;1666;48.898;9.182;2023-05-10T06:53:20;7.30;;;2.75;;
3307;SDS011;1666;48.898;9.182;2023-05-10T06:55:50;2.30;;;1.83;;
3307;SDS011;1666;48.898;9.182;2023-05-10T06:58:20;2.15;;;1.90;;
3307;SDS011;1666;48.898;9.182;2023-05-10T07:00:50;2.50;;;1.90;;
3307;SDS011;1666;48.898;9.182;2023-05-10T07:03:20;2.13;;;1.77;;
3307;SDS011;1666;48.898;9.182;2023-05-10T07:05:52;2.08;;;1.70;;
3307;SDS011;1666;48.898;9.182;2023-05-10T07:08:22;2.75;;;1.58;;
3307;SDS011;1666;48.898;9.182;2023-05-10T07:10:52;3.85;;;1.65;;
3307;SDS011;1666;48.898;9.182;2023-05-10T07:13:22;2.05;;;1.75;;
3307;SDS011;1666;48.898;9.182;2023-05-10T07:15:52;3.40;;;1.63;;
3307;SDS011;1666;48.898;9.182;2023-05-10T07:18:22;1.95;;;1.52;;
3307;SDS011;1666;48.898;9.182;2023-05-10T07:20:55;3.60;;;1.85;;
3307;SDS011;1666;48.898;9.182;2023-05-10T07:23:26;2.20;;;1.50;;
3307;SDS011;1666;48.898;9.182;2023-05-10T07:25:56;2.40;;;2.00;;
3307;SDS011;1666;48.898;9.182;2023-05-10T07:28:26;3.53;;;1.50;;
3307;SDS011;1666;48.898;9.182;2023-05-10T07:30:56;4.88;;;1.38;;
3307;SDS011;1666;48.898;9.182;2023-05-10T07:33:26;7.43;;;5.00;;
3307;SDS011;1666;48.898;9.182;2023-05-10T07:35:59;3.63;;;1.23;;
3307;SDS011;1666;48.898;9.182;2023-05-10T07:38:29;2.83;;;1.40;;
3307;SDS011;1666;48.898;9.182;2023-05-10T07:40:59;1.58;;;1.30;;
3307;SDS011;1666;48.898;9.182;2023-05-10T07:43:28;3.70;;;1.38;;
3307;SDS011;1666;48.898;9.182;2023-05-10T07:45:58;1.88;;;1.40;;
3307;SDS011;1666;48.898;9.182;2023-05-10T07:48:28;4.70;;;1.40;;
3307;SDS011;1666;48.898;9.182;2023-05-10T07:51:01;2.72;;;1.45;;
3307;SDS011;1666;48.898;9.182;2023-05-10T07:53:32;1.85;;;1.00;;
3307;SDS011;1666;48.898;9.182;2023-05-10T07:58:51;1.63;;;0.88;;
3307;SDS011;1666;48.898;9.182;2023-05-10T08:01:21;2.28;;;0.77;;
3307;SDS011;1666;48.898;9.182;2023-05-10T08:03:51;1.70;;;0.80;;
3307;SDS011;1666;48.898;9.182;2023-05-10T08:06:25;2.03;;;0.93;;
3307;SDS011;1666;48.898;9.182;2023-05-10T08:08:57;8.95;;;1.50;;
3307;SDS011;1666;48.898;9.182;2023-05-10T08:11:27;2.55;;;0.95;;
3307;SDS011;1666;48.898;9.182;2023-05-10T08:14:00;1.42;;;0.70;;
3307;SDS011;1666;48.898;9.182;2023-05-10T08:16:30;1.90;;;0.70;;
3307;SDS011;1666;48.898;9.182;2023-05-10T08:19:00;0.65;;;0.50;;
3307;SDS011;1666;48.898;9.182;2023-05-10T08:21:33;1.23;;;0.60;;
3307;SDS011;1666;48.898;9.182;2023-05-10T08:24:04;0.60;;;0.50;;
3307;SDS011;1666;48.898;9.182;2023-05-10T08:26:34;2.30;;;0.70;;
3307;SDS011;1666;48.898;9.182;2023-05-10T08:29:04;1.40;;;0.65;;
3307;SDS011;1666;48.898;9.182;2023-05-10T08:31:34;6.22;;;1.40;;
3307;SDS011;1666;48.898;9.182;2023-05-10T08:34:04;1.48;;;0.60;;
3307;SDS011;1666;48.898;9.182;2023-05-10T08:36:37;1.70;;;0.70;;
3307;SDS011;1666;48.898;9.182;2023-05-10T08:39:06;0.60;;;0.40;;
3307;SDS011;1666;48.898;9.182;2023-05-10T08:41:52;0.90;;;0.63;;
3307;SDS011;1666;48.898;9.182;2023-05-10T08:44:26;1.38;;;0.75;;
3307;SDS011;1666;48.898;9.182;2023-05-10T08:46:56;1.25;;;0.60;;
3307;SDS011;1666;48.898;9.182;2023-05-10T08:49:28;2.72;;;0.57;;
3307;SDS011;1666;48.898;9.182;2023-05-10T08:52:04;1.23;;;0.70;;
3307;SDS011;1666;48.898;9.182;2023-05-10T08:54:36;1.10;;;0.43;;
3307;SDS011;1666;48.898;9.182;2023-05-10T08:57:07;1.73;;;0.40;;
3307;SDS011;1666;48.898;9.182;2023-05-10T08:59:37;1.25;;;0.40;;
3307;SDS011;1666;48.898;9.182;2023-05-10T09:02:07;1.30;;;0.50;;
3307;SDS011;1666;48.898;9.182;2023-05-10T09:04:44;1.35;;;0.47;;
3307;SDS011;1666;48.898;9.182;2023-05-10T09:07:18;1.35;;;0.50;;
3307;SDS011;1666;48.898;9.182;2023-05-10T09:09:48;1.75;;;0.32;;
3307;SDS011;1666;48.898;9.182;2023-05-10T09:12:18;1.65;;;0.38;;
3307;SDS011;1666;48.898;9.182;2023-05-10T09:14:48;1.50;;;0.88;;
3307;SDS011;1666;48.898;9.182;2023-05-10T09:17:19;0.60;;;0.50;;
3307;SDS011;1666;48.898;9.182;2023-05-10T09:19:56;1.48;;;0.60;;
3307;SDS011;1666;48.898;9.182;2023-05-10T09:22:30;0.60;;;0.30;;
3307;SDS011;1666;48.898;9.182;2023-05-10T09:25:03;1.30;;;0.40;;
3307;SDS011;1666;48.898;9.182;2023-05-10T09:30:05;1.75;;;0.57;;
3307;SDS011;1666;48.898;9.182;2023-05-10T09:32:36;0.90;;;0.50;;
3307;SDS011;1666;48.898;9.182;2023-05-10T09:35:08;1.15;;;0.73;;
3307;SDS011;1666;48.898;9.182;2023-05-10T09:37:42;7.82;;;0.75;;
3307;SDS011;1666;48.898;9.182;2023-05-10T09:40:14;3.95;;;0.65;;
3307;SDS011;1666;48.898;9.182;2023-05-10T09:42:51;0.80;;;0.55;;
3307;SDS011;1666;48.898;9.182;2023-05-10T09:45:22;1.20;;;0.70;;
3307;SDS011;1666;48.898;9.182;2023-05-10T09:47:53;1.23;;;0.63;;
3307;SDS011;1666;48.898;9.182;2023-05-10T09:50:23;0.93;;;0.80;;
3307;SDS011;1666;48.898;9.182;2023-05-10T09:52:57;0.90;;;0.50;;
3307;SDS011;1666;48.898;9.182;2023-05-10T09:55:38;1.25;;;0.65;;
3307;SDS011;1666;48.898;9.182;2023-05-10T09:58:10;0.60;;;0.45;;
3307;SDS011;1666;48.898;9.182;2023-05-10T10:00:42;1.42;;;0.50;;
3307;SDS011;1666;48.898;9.182;2023-05-10T10:03:14;2.90;;;0.50;;
3307;SDS011;1666;48.898;9.182;2023-05-10T10:05:46;1.50;;;0.60;;
3307;SDS011;1666;48.898;9.182;2023-05-10T10:08:23;0.80;;;0.55;;
3307;SDS011;1666;48.898;9.182;2023-05-10T10:10:53;0.98;;;0.65;;
3307;SDS011;1666;48.898;9.182;2023-05-10T10:13:23;2.28;;;0.68;;
3307;SDS011;1666;48.898;9.182;2023-05-10T10:15:53;2.50;;;0.60;;
3307;SDS011;1666;48.898;9.182;2023-05-10T10:18:23;2.40;;;0.75;;
3307;SDS011;1666;48.898;9.182;2023-05-10T10:20:55;1.35;;;0.70;;
3307;SDS011;1666;48.898;9.182;2023-05-10T10:23:30;1.33;;;0.60;;
3307;SDS011;1666;48.898;9.182;2023-05-10T10:26:01;2.08;;;0.80;;
3307;SDS011;1666;48.898;9.182;2023-05-10T10:28:33;0.70;;;0.50;;
3307;SDS011;1666;48.898;9.182;2023-05-10T10:31:14;2.97;;;0.70;;
3307;SDS011;1666;48.898;9.182;2023-05-10T10:33:59;1.45;;;0.80;;
3307;SDS011;1666;48.898;9.182;2023-05-10T10:36:33;2.83;;;0.77;;
3307;SDS011;1666;48.898;9.182;2023-05-10T10:39:11;2.42;;;0.52;;
3307;SDS011;1666;48.898;9.182;2023-05-10T10:41:48;0.80;;;0.55;;
3307;SDS011;1666;48.898;9.182;2023-05-10T10:44:23;0.80;;;0.50;;
3307;SDS011;1666;48.898;9.182;2023-05-10T10:47:05;1.95;;;0.50;;
3307;SDS011;1666;48.898;9.182;2023-05-10T10:49:42;0.90;;;0.50;;
3307;SDS011;1666;48.898;9.182;2023-05-10T10:52:20;3.20;;;0.60;;
3307;SDS011;1666;48.898;9.182;2023-05-10T10:55:00;0.50;;;0.40;;
3307;SDS011;1666;48.898;9.182;2023-05-10T10:57:33;1.20;;;0.70;;
3307;SDS011;1666;48.898;9.182;2023-05-10T11:00:28;0.93;;;0.50;;
3307;SDS011;1666;48.898;9.182;2023-05-10T11:02:59;2.88;;;0.40;;
3307;SDS011;1666;48.898;9.182;2023-05-10T11:05:37;2.97;;;0.80;;
3307;SDS011;1666;48.898;9.182;2023-05-10T11:08:12;0.93;;;0.63;;
3307;SDS011;1666;48.898;9.182;2023-05-10T11:13:38;2.65;;;0.80;;
3307;SDS011;1666;48.898;9.182;2023-05-10T11:16:13;2.73;;;0.73;;
3307;SDS011;1666;48.898;9.182;2023-05-10T11:18:56;4.45;;;0.70;;
3307;SDS011;1666;48.898;9.182;2023-05-10T11:21:32;2.10;;;0.52;;
3307;SDS011;1666;48.898;9.182;2023-05-10T11:24:09;1.70;;;0.73;;
3307;SDS011;1666;48.898;9.182;2023-05-10T11:26:45;4.32;;;0.90;;
3307;SDS011;1666;48.898;9.182;2023-05-10T11:29:15;1.25;;;0.60;;
3307;SDS011;1666;48.898;9.182;2023-05-10T11:31:46;0.88;;;0.70;;
3307;SDS011;1666;48.898;9.182;2023-05-10T11:34:23;1.15;;;0.47;;
3307;SDS011;1666;48.898;9.182;2023-05-10T11:36:54;1.00;;;0.70;;
3307;SDS011;1666;48.898;9.182;2023-05-10T11:39:28;1.15;;;0.60;;
3307;SDS011;1666;48.898;9.182;2023-05-10T11:42:02;0.70;;;0.57;;
3307;SDS011;1666;48.898;9.182;2023-05-10T11:44:35;1.00;;;0.80;;
3307;SDS011;1666;48.898;9.182;2023-05-10T11:47:07;2.95;;;0.80;;
3307;SDS011;1666;48.898;9.182;2023-05-10T11:49:37;1.40;;;0.80;;
3307;SDS011;1666;48.898;9.182;2023-05-10T11:52:07;2.78;;;0.90;;
3307;SDS011;1666;48.898;9.182;2023-05-10T11:54:38;2.33;;;1.05;;
3307;SDS011;1666;48.898;9.182;2023-05-10T11:57:17;2.35;;;0.90;;
3307;SDS011;1666;48.898;9.182;2023-05-10T11:59:47;2.05;;;1.25;;
3307;SDS011;1666;48.898;9.182;2023-05-10T12:02:22;3.40;;;1.23;;
3307;SDS011;1666;48.898;9.182;2023-05-10T12:04:52;2.10;;;0.90;;
3307;SDS011;1666;48.898;9.182;2023-05-10T12:07:25;1.42;;;0.93;;
3307;SDS011;1666;48.898;9.182;2023-05-10T12:10:02;1.58;;;1.00;;
3307;SDS011;1666;48.898;9.182;2023-05-10T12:12:42;3.08;;;0.88;;
3307;SDS011;1666;48.898;9.182;2023-05-10T12:15:16;2.90;;;1.17;;
3307;SDS011;1666;48.898;9.182;2023-05-10T12:17:48;6.32;;;1.90;;
3307;SDS011;1666;48.898;9.182;2023-05-10T12:20:18;2.85;;;1.00;;
3307;SDS011;1666;48.898;9.182;2023-05-10T12:22:51;4.30;;;1.60;;
3307;SDS011;1666;48.898;9.182;2023-05-10T12:25:29;1.75;;;1.20;;
3307;SDS011;1666;48.898;9.182;2023-05-10T12:28:03;2.65;;;1.15;;
3307;SDS011;1666;48.898;9.182;2023-05-10T12:30:33;4.17;;;1.40;;
3307;SDS011;1666;48.898;9.182;2023-05-10T12:33:07;2.08;;;1.00;;
3307;SDS011;1666;48.898;9.182;2023-05-10T12:35:45;3.00;;;1.00;;
3307;SDS011;1666;48.898;9.182;2023-05-10T12:38:28;2.13;;;0.90;;
3307;SDS011;1666;48.898;9.182;2023-05-10T12:40:59;1.60;;;0.80;;
3307;SDS011;1666;48.898;9.182;2023-05-10T12:43:33;3.40;;;0.80;;
3307;SDS011;1666;48.898;9.182;2023-05-10T12:46:06;1.95;;;0.93;;
3307;SDS011;1666;48.898;9.182;2023-05-10T12:48:37;2.28;;;0.73;;
3307;SDS011;1666;48.898;9.182;2023-05-10T12:51:08;0.82;;;0.60;;
3307;SDS011;1666;48.898;9.182;2023-05-10T12:53:41;2.33;;;0.70;;
3307;SDS011;1666;48.898;9.182;2023-05-10T12:56:15;2.43;;;0.97;;
3307;SDS011;1666;48.898;9.182;2023-05-10T12:58:47;1.58;;;0.70;;
3307;SDS011;1666;48.898;9.182;2023-05-10T13:01:17;2.65;;;0.60;;
3307;SDS011;1666;48.898;9.182;2023-05-10T13:03:47;1.67;;;0.70;;
3307;SDS011;1666;48.898;9.182;2023-05-10T13:06:17;2.53;;;0.70;;
3307;SDS011;1666;48.898;9.182;2023-05-10T13:08:47;1.20;;;0.70;;
3307;SDS011;1666;48.898;9.182;2023-05-10T13:11:18;2.85;;;0.70;;
3307;SDS011;1666;48.898;9.182;2023-05-10T13:13:50;2.38;;;0.70;;
3307;SDS011;1666;48.898;9.182;2023-05-10T13:16:20;1.80;;;0.70;;
3307;SDS011;1666;48.898;9.182;2023-05-10T13:18:50;3.08;;;0.85;;
3307;SDS011;1666;48.898;9.182;2023-05-10T13:21:20;1.77;;;0.80;;
3307;SDS011;1666;48.898;9.182;2023-05-10T13:23:51;2.20;;;0.80;;
3307;SDS011;1666;48.898;9.182;2023-05-10T13:26:21;2.83;;;0.57;;
3307;SDS011;1666;48.898;9.182;2023-05-10T13:28:54;2.17;;;0.70;;
3307;SDS011;1666;48.898;9.182;2023-05-10T13:31:24;3.38;;;0.90;;
3307;SDS011;1666;48.898;9.182;2023-05-10T13:33:55;1.85;;;0.75;;
3307;SDS011;1666;48.898;9.182;2023-05-10T13:36:25;1.25;;;0.70;;
3307;SDS011;1666;48.898;9.182;2023-05-10T13:38:55;4.10;;;1.67;;
3307;SDS011;1666;48.898;9.182;2023-05-10T13:41:25;5.18;;;1.10;;
3307;SDS011;1666;48.898;9.182;2023-05-10T13:43:57;2.65;;;0.90;;
3307;SDS011;1666;48.898;9.182;2023-05-10T13:46:28;2.75;;;0.68;;
3307;SDS011;1666;48.898;9.182;2023-05-10T13:48:58;1.80;;;0.47;;
3307;SDS011;1666;48.898;9.182;2023-05-10T13:51:28;2.08;;;1.00;;
3307;SDS011;1666;48.898;9.182;2023-05-10T13:53:58;5.40;;;1.05;;
3307;SDS011;1666;48.898;9.182;2023-05-10T13:56:28;1.88;;;1.10;;
3307;SDS011;1666;48.898;9.182;2023-05-10T13:59:00;1.52;;;0.70;;
3307;SDS011;1666;48.898;9.182;2023-05-10T14:01:31;2.53;;;0.93;;
3307;SDS011;1666;48.898;9.182;2023-05-10T14:04:01;3.25;;;0.80;;
3307;SDS011;1666;48.898;9.182;2023-05-10T14:06:31;4.75;;;1.10;;
3307;SDS011;1666;48.898;9.182;2023-05-10T14:09:01;1.23;;;0.80;;
3307;SDS011;1666;48.898;9.182;2023-05-10T14:11:31;1.73;;;0.82;;
3307;SDS011;1666;48.898;9.182;2023-05-10T14:14:03;1.58;;;0.85;;
3307;SDS011;1666;48.898;9.182;2023-05-10T14:16:34;1.13;;;0.80;;
3307;SDS011;1666;48.898;9.182;2023-05-10T14:19:04;1.58;;;0.80;;
3307;SDS011;1666;48.898;9.182;2023-05-10T14:21:34;1.80;;;1.00;;
3307;SDS011;1666;48.898;9.182;2023-05-10T14:24:04;2.30;;;0.75;;
3307;SDS011;1666;48.898;9.182;2023-05-10T14:26:35;2.28;;;0.90;;
3307;SDS011;1666;48.898;9.182;2023-05-10T14:29:07;1.27;;;0.70;;
3307;SDS011;1666;48.898;9.182;2023-05-10T14:31:38;1.52;;;0.77;;
3307;SDS011;1666;48.898;9.182;2023-05-10T14:34:09;3.17;;;1.08;;
3307;SDS011;1666;48.898;9.182;2023-05-10T14:36:39;2.70;;;0.70;;
3307;SDS011;1666;48.898;9.182;2023-05-10T14:39:09;1.40;;;0.77;;
3307;SDS011;1666;48.898;9.182;2023-05-10T14:41:39;2.30;;;0.80;;
3307;SDS011;1666;48.898;9.182;2023-05-10T14:44:13;4.97;;;0.80;;
3307;SDS011;1666;48.898;9.182;2023-05-10T14:46:45;2.47;;;0.70;;
3307;SDS011;1666;48.898;9.182;2023-05-10T14:49:16;2.33;;;0.70;;
3307;SDS011;1666;48.898;9.182;2023-05-10T14:51:49;2.20;;;1.05;;
3307;SDS011;1666;48.898;9.182;2023-05-10T14:54:19;0.60;;;0.60;;
3307;SDS011;1666;48.898;9.182;2023-05-10T14:56:49;2.03;;;0.60;;
3307;SDS011;1666;48.898;9.182;2023-05-10T14:59:21;3.17;;;0.70;;
3307;SDS011;1666;48.898;9.182;2023-05-10T15:01:52;2.22;;;0.70;;
3307;SDS011;1666;48.898;9.182;2023-05-10T15:04:22;3.15;;;1.00;;
3307;SDS011;1666;48.898;9.182;2023-05-10T15:06:54;0.95;;;0.50;;
3307;SDS011;1666;48.898;9.182;2023-05-10T15:09:25;2.75;;;1.00;;
3307;SDS011;1666;48.898;9.182;2023-05-10T15:11:56;0.75;;;0.63;;
3307;SDS011;1666;48.898;9.182;2023-05-10T15:14:28;1.63;;;0.80;;
3307;SDS011;1666;48.898;9.182;2023-05-10T15:16:59;4.32;;;0.90;;
3307;SDS011;1666;48.898;9.182;2023-05-10T15:19:29;4.43;;;0.93;;
3307;SDS011;1666;48.898;9.182;2023-05-10T15:21:59;1.50;;;0.75;;
3307;SDS011;1666;48.898;9.182;2023-05-10T15:24:29;1.42;;;0.50;;
3307;SDS011;1666;48.898;9.182;2023-05-10T15:26:59;2.05;;;0.75;;
3307;SDS011;1666;48.898;9.182;2023-05-10T15:29:31;2.35;;;0.57;;
3307;SDS011;1666;48.898;9.182;2023-05-10T15:32:02;2.65;;;0.70;;
3307;SDS011;1666;48.898;9.182;2023-05-10T15:34:32;5.53;;;1.02;;
3307;SDS011;1666;48.898;9.182;2023-05-10T15:37:02;2.28;;;1.10;;
3307;SDS011;1666;48.898;9.182;2023-05-10T15:39:32;1.95;;;1.00;;
3307;SDS011;1666;48.898;9.182;2023-05-10T15:42:02;2.60;;;0.50;;
3307;SDS011;1666;48.898;9.182;2023-05-10T15:44:35;1.42;;;0.60;;
3307;SDS011;1666;48.898;9.182;2023-05-10T15:47:05;0.70;;;0.50;;
3307;SDS011;1666;48.898;9.182;2023-05-10T15:49:35;2.15;;;0.60;;
3307;SDS011;1666;48.898;9.182;2023-05-10T15:52:05;2.70;;;0.60;;
3307;SDS011;1666;48.898;9.182;2023-05-10T15:54:34;1.88;;;0.52;;
3307;SDS011;1666;48.898;9.182;2023-05-10T15:57:04;1.95;;;0.80;;
3307;SDS011;1666;48.898;9.182;2023-05-10T15:59:37;0.38;;;0.38;;